Time;durP1;ratioP1;P1;durP2;ratioP2;P2;SDS_P1;SDS_P2;PMS_P1;PMS_P2;Temp;Humidity;BMP_temperature;BMP_pressure;BME280_temperature;BME280_humidity;BME280_pressure;Samples;Min_cycle;Max_cycle;Signal;HPM_P1;HPM_P2
2023/03/28 00:01:50;;;;;;;5.15;0.88;;;2.10;99.90;;;;;;5074315;28;20029;-65
2023/03/28 00:04:21;;;;;;;0.95;0.52;;;2.10;99.90;;;;;;5074110;28;20049;-66
2023/03/28 00:06:48;;;;;;;2.10;0.50;;;2.10;99.90;;;;;;5073933;28;20044;-67
2023/03/28 00:09:13;;;;;;;5.63;1.13;;;2.00;99.90;;;;;;5074223;28;20033;-65
2023/03/28 00:11:39;;;;;;;0.65;0.40;;;2.00;99.60;;;;;;5074005;28;20537;-65
2023/03/28 00:14:07;;;;;;;4.18;0.68;;;2.00;39.50;;;;;;5074059;28;20140;-65
2023/03/28 00:16:38;;;;;;;1.45;0.93;;;2.00;1.00;;;;;;5074031;28;20094;-65
2023/03/28 00:19:10;;;;;;;1.30;0.73;;;1.90;1.00;;;;;;5074002;28;20067;-65
2023/03/28 00:21:39;;;;;;;0.52;0.45;;;2.00;1.00;;;;;;5073645;28;20396;-65
2023/03/28 00:24:09;;;;;;;1.65;0.70;;;1.90;1.00;;;;;;5073593;28;20055;-65
2023/03/28 00:26:36;;;;;;;6.50;0.80;;;2.00;1.00;;;;;;5055729;28;20045;-65
2023/03/28 00:29:04;;;;;;;2.30;0.50;;;1.90;1.00;;;;;;5073827;28;20044;-65
2023/03/28 00:31:31;;;;;;;2.00;0.40;;;1.80;1.00;;;;;;5073725;28;20089;-65
2023/03/28 00:33:57;;;;;;;1.95;0.82;;;1.80;1.00;;;;;;5073427;28;20048;-65
2023/03/28 00:36:28;;;;;;;1.65;0.65;;;1.80;1.00;;;;;;5073433;28;20036;-65
2023/03/28 00:38:57;;;;;;;0.45;0.35;;;4.30;1.00;;;;;;5073337;28;20567;-65
2023/03/28 00:41:25;;;;;;;5.72;0.80;;;1.70;1.00;;;;;;5073576;28;20036;-66
2023/03/28 00:43:54;;;;;;;1.65;0.68;;;1.70;1.00;;;;;;5073290;28;20509;-65
2023/03/28 00:46:31;;;;;;;4.13;0.88;;;1.80;1.00;;;;;;5073418;28;20109;-65
2023/03/28 00:49:11;;;;;;;2.72;1.17;;;1.70;1.00;;;;;;5055296;28;20093;-65
2023/03/28 00:51:46;;;;;;;7.95;0.70;;;1.70;1.00;;;;;;5055436;28;20480;-65
2023/03/28 00:54:16;;;;;;;5.60;1.38;;;1.70;1.00;;;;;;5073439;28;20036;-65
2023/03/28 00:56:46;;;;;;;0.50;0.40;;;1.70;1.00;;;;;;5073330;28;20126;-65
2023/03/28 00:59:16;;;;;;;2.60;0.68;;;1.70;1.00;;;;;;5055474;28;20443;-65
2023/03/28 01:01:44;;;;;;;4.20;0.87;;;1.60;1.00;;;;;;5073342;28;20043;-65
2023/03/28 01:04:09;;;;;;;2.50;0.65;;;1.60;1.00;;;;;;5054949;28;20048;-66
2023/03/28 01:06:45;;;;;;;1.98;0.60;;;1.70;1.00;;;;;;5073231;28;20473;-65
2023/03/28 01:09:13;;;;;;;2.08;0.60;;;1.70;91.70;;;;;;5054798;28;20048;-66
2023/03/28 01:11:40;;;;;;;1.23;0.60;;;1.70;79.20;;;;;;5072877;28;20052;-65
2023/03/28 01:14:08;;;;;;;2.55;0.52;;;1.60;99.90;;;;;;5072873;28;20050;-66
2023/03/28 01:16:40;;;;;;;4.55;1.20;;;1.60;99.90;;;;;;5073201;28;20426;-65
2023/03/28 01:19:15;;;;;;;7.53;1.42;;;1.60;99.90;;;;;;5073032;28;20487;-65
2023/03/28 01:21:47;;;;;;;6.32;0.47;;;1.60;99.90;;;;;;5055209;28;20526;-65
2023/03/28 01:24:31;;;;;;;4.18;0.75;;;1.30;99.90;;;;;;5072723;28;20083;-65
2023/03/28 01:27:00;;;;;;;1.83;0.82;;;1.70;99.90;;;;;;5073001;28;20086;-65
2023/03/28 01:29:40;;;;;;;4.78;0.68;;;1.70;99.90;;;;;;5054810;28;20064;-65
2023/03/28 01:32:32;;;;;;;2.90;0.93;;;1.70;99.90;;;;;;5072978;28;20068;-65
2023/03/28 01:35:16;;;;;;;;;;;1.60;99.90;;;;;;5073317;28;20040;-65
2023/03/28 01:38:08;;;;;;;1.00;0.60;;;1.60;99.90;;;;;;5072828;28;19926;-65
2023/03/28 01:40:54;;;;;;;1.30;0.60;;;1.60;99.90;;;;;;5072859;28;20377;-66
2023/03/28 01:43:23;;;;;;;6.85;0.70;;;1.60;99.90;;;;;;5072538;28;20033;-65
2023/03/28 01:45:57;;;;;;;2.10;0.90;;;1.60;99.90;;;;;;5054580;28;20167;-66
2023/03/28 01:48:45;;;;;;;2.40;0.90;;;1.60;99.90;;;;;;5072843;28;20487;-66
2023/03/28 01:51:20;;;;;;;6.35;0.52;;;1.50;99.90;;;;;;5072762;28;20442;-65
2023/03/28 01:54:11;;;;;;;3.92;0.68;;;1.60;99.90;;;;;;5072713;28;20396;-65
2023/03/28 01:56:46;;;;;;;0.37;0.30;;;1.50;99.90;;;;;;5054562;28;20404;-65
2023/03/28 01:59:23;;;;;;;1.77;0.63;;;1.50;99.90;;;;;;5072776;28;20081;-65
2023/03/28 02:02:08;;;;;;;5.57;0.75;;;1.50;99.90;;;;;;5072277;28;20078;-65
2023/03/28 02:04:35;;;;;;;0.38;0.30;;;1.50;99.90;;;;;;5072423;28;20465;-65
2023/03/28 02:07:03;;;;;;;8.45;0.50;;;2.00;99.90;;;;;;5072594;28;20052;-65
2023/03/28 02:09:31;;;;;;;6.50;0.95;;;1.40;99.90;;;;;;5072523;28;20055;-65
2023/03/28 02:12:01;;;;;;;1.42;0.77;;;1.50;99.90;;;;;;5054573;28;20048;-66
2023/03/28 02:14:35;;;;;;;4.47;0.90;;;1.40;99.90;;;;;;5072603;28;20048;-66
2023/03/28 02:17:08;;;;;;;2.20;0.60;;;1.40;99.90;;;;;;5072416;28;20037;-66
2023/03/28 02:19:36;;;;;;;8.98;1.02;;;1.40;1.00;;;;;;5072864;28;20415;-66
2023/03/28 02:22:19;;;;;;;3.67;0.77;;;1.40;1.00;;;;;;5058292;28;20504;-65
2023/03/28 02:24:49;;;;;;;7.13;0.65;;;1.40;1.00;;;;;;5076225;28;20040;-66
2023/03/28 02:27:15;;;;;;;4.72;0.50;;;1.40;99.90;;;;;;5058297;28;20479;-65
2023/03/28 02:29:41;;;;;;;3.42;0.77;;;1.40;1.00;;;;;;5076166;28;20044;-65
2023/03/28 02:32:07;;;;;;;6.57;0.65;;;1.40;1.00;;;;;;5075712;28;20395;-65
2023/03/28 02:34:33;;;;;;;3.28;0.60;;;1.40;1.00;;;;;;5076067;28;20421;-65
2023/03/28 02:37:22;;;;;;;2.35;0.70;;;1.30;1.00;;;;;;5075912;28;20414;-65
2023/03/28 02:40:29;;;;;;;2.88;0.90;;;1.30;1.00;;;;;;5062195;28;20139;-65
2023/03/28 02:43:00;;;;;;;7.57;0.82;;;1.30;1.00;;;;;;4974649;28;20406;-65
2023/03/28 02:45:43;;;;;;;2.33;0.63;;;1.30;1.00;;;;;;4974753;28;20081;-65
2023/03/28 02:48:32;;;;;;;1.67;0.65;;;1.30;1.00;;;;;;5036949;28;20289;-65
2023/03/28 02:51:24;;;;;;;0.52;0.30;;;1.30;1.00;;;;;;5075257;28;20048;-65
2023/03/28 02:54:22;;;;;;;9.95;0.88;;;1.30;1.00;;;;;;5057512;28;20037;-66
2023/03/28 02:57:17;;;;;;;4.40;0.70;;;1.30;1.00;;;;;;5075598;28;20040;-66
2023/03/28 02:59:51;;;;;;;1.85;0.60;;;1.30;1.00;;;;;;5053555;28;20495;-65
2023/03/28 03:02:20;;;;;;;0.95;0.50;;;1.30;1.00;;;;;;5057623;28;20075;-65
2023/03/28 03:04:49;;;;;;;5.05;0.93;;;2.70;1.00;;;;;;5075162;28;20119;-65
2023/03/28 03:07:18;;;;;;;1.80;0.50;;;1.30;1.00;;;;;;5075147;28;20052;-65
2023/03/28 03:09:45;;;;;;;4.82;0.57;;;1.30;1.00;;;;;;5075435;28;20480;-70
2023/03/28 03:12:11;;;;;;;2.25;0.63;;;1.30;1.00;;;;;;5075050;28;20450;-65
2023/03/28 03:14:37;;;;;;;3.58;1.02;;;1.20;1.00;;;;;;5075303;28;20033;-65
2023/03/28 03:17:04;;;;;;;2.13;0.50;;;1.20;1.00;;;;;;5074837;28;20047;-66
2023/03/28 03:19:31;;;;;;;4.13;0.68;;;1.20;1.00;;;;;;5075217;28;20395;-66
2023/03/28 03:21:57;;;;;;;2.05;0.88;;;1.20;1.00;;;;;;5057226;28;20036;-65
2023/03/28 03:24:24;;;;;;;1.00;0.57;;;1.10;3.20;;;;;;5074862;28;20115;-65
2023/03/28 03:26:50;;;;;;;5.50;0.90;;;1.10;1.00;;;;;;5074779;28;20062;-65
2023/03/28 03:29:16;;;;;;;0.77;0.38;;;1.10;7.20;;;;;;5057083;28;20473;-67
2023/03/28 03:31:41;;;;;;;6.60;1.35;;;1.00;13.80;;;;;;5056280;28;20594;-65
2023/03/28 03:34:07;;;;;;;7.90;0.50;;;1.00;13.20;;;;;;5056968;28;20072;-66
2023/03/28 03:36:33;;;;;;;5.60;0.70;;;1.00;11.10;;;;;;5074912;28;20111;-66
2023/03/28 03:38:58;;;;;;;5.72;1.00;;;1.00;19.10;;;;;;5074758;28;20063;-65
2023/03/28 03:41:24;;;;;;;10.05;0.80;;;1.00;17.80;;;;;;5074750;28;20071;-66
2023/03/28 03:43:50;;;;;;;2.70;0.93;;;0.90;20.20;;;;;;5074741;28;20471;-65
2023/03/28 03:46:16;;;;;;;1.42;0.80;;;1.50;20.30;;;;;;5056824;28;20111;-65
2023/03/28 03:48:42;;;;;;;1.05;0.63;;;0.90;21.70;;;;;;5074613;28;20079;-65
2023/03/28 03:51:08;;;;;;;2.47;0.75;;;0.90;22.90;;;;;;5074340;28;20044;-65
2023/03/28 03:53:34;;;;;;;5.40;1.02;;;0.90;27.90;;;;;;5074215;28;20110;-66
2023/03/28 03:56:01;;;;;;;4.70;0.82;;;0.80;37.60;;;;;;5074467;28;20377;-66
2023/03/28 03:58:27;;;;;;;4.88;0.95;;;0.80;33.30;;;;;;5074050;28;20036;-65
2023/03/28 04:00:52;;;;;;;2.30;0.55;;;0.80;38.60;;;;;;5074384;28;20044;-65
2023/03/28 04:03:18;;;;;;;5.72;0.73;;;0.80;38.10;;;;;;5056195;28;20040;-65
2023/03/28 04:05:44;;;;;;;5.20;1.05;;;0.90;37.80;;;;;;5073862;28;20048;-65
2023/03/28 04:08:10;;;;;;;1.25;0.73;;;0.80;41.30;;;;;;5056336;28;20052;-65
2023/03/28 04:10:35;;;;;;;8.10;0.75;;;0.90;42.20;;;;;;5039440;28;20087;-65
2023/03/28 04:13:01;;;;;;;2.22;0.77;;;0.70;45.60;;;;;;5074179;28;20495;-65
2023/03/28 04:15:27;;;;;;;6.35;0.98;;;0.70;44.00;;;;;;5056230;28;20037;-65
2023/03/28 04:17:55;;;;;;;1.63;0.55;;;0.40;44.80;;;;;;5073995;28;20067;-65
2023/03/28 04:20:25;;;;;;;8.23;1.35;;;0.70;45.60;;;;;;5073968;28;20491;-65
2023/03/28 04:22:52;;;;;;;11.27;1.52;;;0.60;45.40;;;;;;5074025;28;20036;-65
2023/03/28 04:25:20;;;;;;;4.40;0.90;;;0.70;45.40;;;;;;5073963;28;20041;-65
2023/03/28 04:27:46;;;;;;;3.70;0.60;;;0.70;53.10;;;;;;5073811;28;20040;-65
2023/03/28 04:30:16;;;;;;;2.53;0.70;;;0.70;54.30;;;;;;5073894;28;20037;-65
2023/03/28 04:32:42;;;;;;;2.33;0.45;;;0.70;56.40;;;;;;5073738;28;20411;-65
2023/03/28 04:35:10;;;;;;;0.65;0.57;;;0.90;58.80;;;;;;5055849;28;20438;-65
2023/03/28 04:37:36;;;;;;;1.15;0.52;;;0.60;58.90;;;;;;5073576;28;20036;-66
2023/03/28 04:40:09;;;;;;;6.93;0.65;;;1.70;62.50;;;;;;5073614;28;20533;-65
2023/03/28 04:42:37;;;;;;;3.00;0.90;;;0.80;65.90;;;;;;5073461;28;20036;-65
2023/03/28 04:45:05;;;;;;;3.80;0.95;;;0.70;64.90;;;;;;5054760;28;20040;-67
2023/03/28 04:47:31;;;;;;;1.73;0.57;;;0.70;67.50;;;;;;5073287;28;20119;-67
2023/03/28 04:49:57;;;;;;;4.00;0.63;;;0.70;67.20;;;;;;5073443;28;20043;-65
2023/03/28 04:52:23;;;;;;;4.47;0.60;;;0.70;68.00;;;;;;5055561;28;20060;-65
2023/03/28 04:54:48;;;;;;;6.47;0.63;;;0.50;68.90;;;;;;5073404;28;20047;-65
2023/03/28 04:57:14;;;;;;;5.95;0.70;;;0.50;76.80;;;;;;5073276;28;20124;-65
2023/03/28 04:59:40;;;;;;;0.57;0.30;;;0.80;74.60;;;;;;5055571;28;20426;-66
2023/03/28 05:02:06;;;;;;;3.10;0.70;;;0.60;75.10;;;;;;5055090;28;20068;-65
2023/03/28 05:04:31;;;;;;;5.68;0.82;;;0.60;78.20;;;;;;5055057;28;20441;-65
2023/03/28 05:06:57;;;;;;;8.00;0.95;;;0.60;78.80;;;;;;5073263;28;20083;-65
2023/03/28 05:09:23;;;;;;;0.25;0.25;;;0.60;78.00;;;;;;5073338;28;20035;-66
2023/03/28 05:11:49;;;;;;;5.68;1.20;;;0.60;79.00;;;;;;5073115;28;20032;-65
2023/03/28 05:14:15;;;;;;;3.25;0.73;;;0.70;79.70;;;;;;5073122;28;20036;-66
2023/03/28 05:16:40;;;;;;;4.28;0.75;;;0.60;81.00;;;;;;5073156;28;20429;-66
2023/03/28 05:19:06;;;;;;;1.67;0.57;;;0.60;81.40;;;;;;5072730;28;20533;-68
2023/03/28 05:21:32;;;;;;;6.10;1.10;;;0.50;81.60;;;;;;5054818;28;20048;-65
2023/03/28 05:23:57;;;;;;;3.53;0.50;;;0.60;86.60;;;;;;5072999;28;20047;-65
2023/03/28 05:26:23;;;;;;;4.75;0.85;;;0.50;89.30;;;;;;5038200;28;20051;-66
2023/03/28 05:28:49;;;;;;;4.57;0.75;;;0.60;88.60;;;;;;5072947;28;20423;-66
2023/03/28 05:31:16;;;;;;;2.03;1.00;;;0.70;89.50;;;;;;5072629;28;20032;-66
2023/03/28 05:33:41;;;;;;;7.68;0.93;;;0.50;88.40;;;;;;5072964;28;20531;-67
2023/03/28 05:36:07;;;;;;;2.40;0.63;;;0.60;89.70;;;;;;5072932;28;20060;-66
2023/03/28 05:38:33;;;;;;;2.05;0.73;;;0.60;90.00;;;;;;5072771;28;20146;-66
2023/03/28 05:40:59;;;;;;;3.15;0.80;;;0.60;91.30;;;;;;5072586;28;20567;-67
2023/03/28 05:43:25;;;;;;;2.55;1.02;;;0.60;91.20;;;;;;5072863;28;20043;-65
2023/03/28 05:45:50;;;;;;;1.40;0.68;;;0.70;91.10;;;;;;5072885;28;20047;-66
2023/03/28 05:48:16;;;;;;;3.08;0.75;;;0.70;91.50;;;;;;5072773;28;20040;-66
2023/03/28 05:50:43;;;;;;;1.25;0.60;;;0.70;91.80;;;;;;5072755;28;20051;-67
2023/03/28 05:53:09;;;;;;;8.70;1.25;;;0.70;91.70;;;;;;5054651;28;20048;-65
2023/03/28 05:55:35;;;;;;;4.93;0.70;;;0.70;92.40;;;;;;5074828;28;20074;-66
2023/03/28 05:58:01;;;;;;;1.45;0.80;;;0.80;92.30;;;;;;5076626;28;20040;-68
2023/03/28 06:00:27;;;;;;;3.70;1.20;;;0.80;91.90;;;;;;5076670;28;20090;-69
2023/03/28 06:02:56;;;;;;;7.78;1.13;;;0.90;92.40;;;;;;5076451;28;20494;-66
2023/03/28 06:05:22;;;;;;;0.60;0.57;;;0.90;92.60;;;;;;5058080;28;20053;-66
2023/03/28 06:07:48;;;;;;;3.13;1.10;;;1.00;92.80;;;;;;5058117;28;20059;-68
2023/03/28 06:10:14;;;;;;;3.42;0.68;;;1.00;93.20;;;;;;5058097;28;20049;-64
2023/03/28 06:12:43;;;;;;;3.90;0.57;;;1.00;93.50;;;;;;5076049;28;20028;-65
2023/03/28 06:15:09;;;;;;;1.00;0.50;;;1.30;93.70;;;;;;5076140;28;20082;-67
2023/03/28 06:17:35;;;;;;;0.73;0.55;;;1.20;92.70;;;;;;5041272;28;20079;-65
2023/03/28 06:20:05;;;;;;;1.65;0.80;;;1.20;92.40;;;;;;5058124;28;20076;-64
2023/03/28 06:22:30;;;;;;;4.03;0.82;;;1.30;91.70;;;;;;5058258;28;20091;-64
2023/03/28 06:24:56;;;;;;;4.13;0.82;;;1.50;92.20;;;;;;5076060;28;20058;-65
2023/03/28 06:27:25;;;;;;;4.68;0.77;;;1.50;91.40;;;;;;5075663;28;20036;-65
2023/03/28 06:29:50;;;;;;;3.40;0.85;;;1.80;96.00;;;;;;5076041;28;20086;-65
2023/03/28 06:32:18;;;;;;;2.85;0.77;;;2.20;97.90;;;;;;5075949;28;20533;-65
2023/03/28 06:34:43;;;;;;;3.78;1.02;;;2.00;94.10;;;;;;5075764;28;20040;-65
2023/03/28 06:37:09;;;;;;;7.78;0.98;;;2.40;96.30;;;;;;5075933;28;20143;-65
2023/03/28 06:39:35;;;;;;;9.20;1.05;;;2.30;83.50;;;;;;5075927;28;20044;-64
2023/03/28 06:42:02;;;;;;;9.95;0.80;;;2.20;76.80;;;;;;5075860;28;20036;-64
2023/03/28 06:44:29;;;;;;;2.80;0.70;;;2.40;73.70;;;;;;5075805;28;20047;-65
2023/03/28 06:46:55;;;;;;;12.35;1.25;;;2.50;74.70;;;;;;5057803;28;20040;-65
2023/03/28 06:49:21;;;;;;;4.28;0.93;;;2.70;64.40;;;;;;5057750;28;20123;-65
2023/03/28 06:51:46;;;;;;;8.45;0.80;;;2.90;53.10;;;;;;5075657;28;20131;-64
2023/03/28 06:54:12;;;;;;;3.10;0.73;;;3.00;44.20;;;;;;5057786;28;20032;-65
2023/03/28 06:56:38;;;;;;;2.80;1.13;;;3.10;33.70;;;;;;5075563;28;20106;-65
2023/03/28 06:59:03;;;;;;;1.90;0.82;;;3.30;28.70;;;;;;5075231;28;20403;-64
2023/03/28 07:01:29;;;;;;;1.30;0.70;;;3.40;18.20;;;;;;5075265;28;20045;-64
2023/03/28 07:03:58;;;;;;;5.43;0.80;;;3.50;17.00;;;;;;5075045;28;20056;-64
2023/03/28 07:06:25;;;;;;;1.58;0.57;;;3.60;4.00;;;;;;5074557;28;20484;-65
2023/03/28 07:08:51;;;;;;;3.40;0.95;;;3.70;6.10;;;;;;5075448;28;20081;-64
2023/03/28 07:11:16;;;;;;;3.65;0.80;;;3.80;6.40;;;;;;5075152;28;20476;-65
2023/03/28 07:13:42;;;;;;;1.70;0.65;;;3.90;1.00;;;;;;5075028;28;20037;-64
2023/03/28 07:16:12;;;;;;;2.30;0.98;;;4.10;1.00;;;;;;5075270;28;20036;-64
2023/03/28 07:18:39;;;;;;;4.47;0.65;;;4.10;1.00;;;;;;5075216;28;20068;-65
2023/03/28 07:21:06;;;;;;;4.60;0.60;;;4.20;1.00;;;;;;5075175;28;20048;-65
2023/03/28 07:23:32;;;;;;;3.35;0.70;;;4.30;1.00;;;;;;5056974;28;20036;-65
2023/03/28 07:25:58;;;;;;;2.22;0.93;;;4.40;1.00;;;;;;5075082;28;20047;-65
2023/03/28 07:28:23;;;;;;;7.50;1.02;;;4.50;1.00;;;;;;5074703;28;20051;-65
2023/03/28 07:30:51;;;;;;;3.08;0.50;;;4.60;1.00;;;;;;5056785;28;20124;-65
2023/03/28 07:33:17;;;;;;;5.22;0.73;;;4.70;1.00;;;;;;5074994;28;20115;-65
2023/03/28 07:35:42;;;;;;;4.03;0.90;;;4.80;1.00;;;;;;5056646;28;20127;-65
2023/03/28 07:38:08;;;;;;;1.95;0.70;;;4.90;1.00;;;;;;5056758;28;20488;-64
2023/03/28 07:40:34;;;;;;;2.72;0.90;;;5.00;1.00;;;;;;5056652;28;20056;-65
2023/03/28 07:43:00;;;;;;;3.35;0.88;;;5.10;1.00;;;;;;5074725;28;20416;-65
2023/03/28 07:45:26;;;;;;;3.22;1.00;;;5.20;99.90;;;;;;5056806;28;20036;-65
2023/03/28 07:47:51;;;;;;;1.33;0.50;;;5.30;99.90;;;;;;5074649;28;20476;-66
2023/03/28 07:50:18;;;;;;;3.90;0.70;;;5.40;99.90;;;;;;5074573;28;20384;-65
2023/03/28 07:52:47;;;;;;;3.63;0.80;;;5.50;99.90;;;;;;5074328;28;20091;-65
2023/03/28 07:55:13;;;;;;;9.23;0.85;;;5.70;99.90;;;;;;5074494;28;20048;-65
2023/03/28 07:57:39;;;;;;;4.93;0.80;;;5.80;99.90;;;;;;5074416;28;20380;-65
2023/03/28 08:00:11;;;;;;;4.85;0.80;;;5.90;99.90;;;;;;5074133;28;20082;-65
2023/03/28 08:02:38;;;;;;;3.20;0.70;;;6.00;1.00;;;;;;5056400;28;20148;-65
2023/03/28 08:05:04;;;;;;;0.55;0.40;;;6.20;99.90;;;;;;5074033;28;20465;-65
2023/03/28 08:07:30;;;;;;;2.97;0.77;;;6.20;1.00;;;;;;5074543;28;20052;-65
2023/03/28 08:09:56;;;;;;;1.85;0.47;;;6.40;1.00;;;;;;5074208;28;20036;-65
2023/03/28 08:12:21;;;;;;;1.73;0.63;;;6.50;1.00;;;;;;5073862;28;20040;-64
2023/03/28 08:14:47;;;;;;;1.70;0.98;;;6.50;1.00;;;;;;5074028;28;20045;-65
2023/03/28 08:17:13;;;;;;;5.97;0.98;;;6.70;1.00;;;;;;5073942;28;20037;-65
2023/03/28 08:19:38;;;;;;;5.78;0.70;;;7.10;99.90;;;;;;5073671;28;20048;-65
2023/03/28 08:22:04;;;;;;;0.70;0.30;;;7.30;99.90;;;;;;5074000;28;20051;-65
2023/03/28 08:24:30;;;;;;;2.25;0.47;;;7.30;99.90;;;;;;5074029;28;20487;-65
2023/03/28 08:26:56;;;;;;;1.35;0.68;;;7.50;1.00;;;;;;5073868;28;20036;-65
2023/03/28 08:29:22;;;;;;;3.05;0.50;;;7.60;99.90;;;;;;5073572;28;20051;-65
2023/03/28 08:31:48;;;;;;;6.63;0.55;;;7.60;1.00;;;;;;5073770;28;20105;-66
2023/03/28 08:34:14;;;;;;;5.47;0.65;;;7.50;99.90;;;;;;5056414;28;20036;-66
2023/03/28 08:36:41;;;;;;;2.35;0.40;;;7.30;99.90;;;;;;5073698;28;20082;-65
2023/03/28 08:39:06;;;;;;;1.30;0.63;;;7.20;99.90;;;;;;5073596;28;20090;-65
2023/03/28 08:41:44;;;;;;;3.85;0.60;;;7.00;1.00;;;;;;5073250;28;20498;-65
2023/03/28 08:44:19;;;;;;;2.47;0.85;;;6.90;99.90;;;;;;5073557;28;20396;-65
2023/03/28 08:46:49;;;;;;;3.53;0.88;;;6.90;99.90;;;;;;5073516;28;20483;-65
2023/03/28 08:49:17;;;;;;;3.30;0.47;;;7.10;99.90;;;;;;5073511;28;20446;-65
2023/03/28 08:51:47;;;;;;;4.25;0.70;;;6.90;1.00;;;;;;5073447;28;20040;-65
2023/03/28 08:54:35;;;;;;;0.38;0.38;;;6.90;99.90;;;;;;5055524;28;20146;-65
2023/03/28 08:57:03;;;;;;;0.77;0.40;;;6.90;60.20;;;;;;5073262;28;20086;-65
2023/03/28 08:59:53;;;;;;;0.73;0.40;;;6.90;99.90;;;;;;5073357;28;20032;-65
2023/03/28 09:02:25;;;;;;;1.50;0.70;;;6.90;1.00;;;;;;5073310;28;20068;-65
2023/03/28 09:04:52;;;;;;;1.23;0.57;;;6.80;99.90;;;;;;5072899;28;20488;-65
2023/03/28 09:07:41;;;;;;;1.20;0.70;;;6.80;99.90;;;;;;5072932;28;20048;-65
2023/03/28 09:10:24;;;;;;;1.58;0.50;;;6.90;99.90;;;;;;5072865;28;20127;-65
2023/03/28 09:12:52;;;;;;;3.35;0.80;;;6.90;87.30;;;;;;5073175;28;20040;-65
2023/03/28 09:15:42;;;;;;;1.10;0.50;;;7.00;99.90;;;;;;5073064;28;20044;-65
2023/03/28 09:18:10;;;;;;;2.85;0.65;;;7.00;99.90;;;;;;5072719;28;20037;-65
2023/03/28 09:20:49;;;;;;;6.10;0.88;;;7.00;99.90;;;;;;5073043;28;20056;-65
2023/03/28 09:23:38;;;;;;;6.65;1.20;;;7.10;99.90;;;;;;5073074;28;20528;-65
2023/03/28 09:26:08;;;;;;;2.28;0.68;;;7.20;1.00;;;;;;5072935;28;20028;-65
2023/03/28 09:28:50;;;;;;;3.83;0.80;;;8.10;99.90;;;;;;5073051;28;20041;-65
2023/03/28 09:31:19;;;;;;;2.38;0.77;;;7.30;99.90;;;;;;5072444;28;20037;-65
2023/03/28 09:33:47;;;;;;;3.20;0.63;;;8.10;45.50;;;;;;5072880;28;20036;-65
2023/03/28 09:36:19;;;;;;;4.28;0.65;;;7.70;99.90;;;;;;5054678;28;20436;-65
2023/03/28 09:38:50;;;;;;;1.88;0.50;;;7.80;99.90;;;;;;5072563;28;20594;-65
2023/03/28 09:41:24;;;;;;;3.28;0.60;;;8.00;99.90;;;;;;5072885;28;20052;-65
2023/03/28 09:43:57;;;;;;;0.65;0.40;;;8.00;99.90;;;;;;5054911;28;20044;-65
2023/03/28 09:46:35;;;;;;;0.75;0.50;;;8.10;99.90;;;;;;5072868;28;20040;-65
2023/03/28 09:49:01;;;;;;;6.57;0.68;;;7.90;1.00;;;;;;5072578;28;20106;-65
2023/03/28 09:51:27;;;;;;;1.38;0.50;;;7.80;99.90;;;;;;5072879;28;20044;-64
2023/03/28 09:53:52;;;;;;;2.40;0.55;;;7.70;99.90;;;;;;5072678;28;20051;-65
2023/03/28 09:56:41;;;;;;;0.65;0.40;;;7.60;1.00;;;;;;5072788;28;20545;-64
2023/03/28 09:59:20;;;;;;;1.60;0.45;;;7.70;1.00;;;;;;5072627;28;20048;-65
2023/03/28 10:01:48;;;;;;;4.43;0.82;;;7.70;99.90;;;;;;5072566;28;20143;-64
2023/03/28 10:04:26;;;;;;;1.10;1.00;;;7.70;1.00;;;;;;5072302;28;20072;-64
2023/03/28 10:06:53;;;;;;;4.63;0.60;;;7.90;1.00;;;;;;5072610;28;20393;-64
2023/03/28 10:09:26;;;;;;;0.65;0.35;;;8.00;1.00;;;;;;5072346;28;20462;-65
2023/03/28 10:11:56;;;;;;;1.30;0.52;;;8.10;1.00;;;;;;5054728;28;20106;-65
2023/03/28 10:14:38;;;;;;;1.38;0.80;;;8.10;1.00;;;;;;5072579;28;20048;-74
2023/03/28 10:17:24;;;;;;;1.55;0.77;;;8.00;1.00;;;;;;5054279;28;20442;-65
2023/03/28 10:19:51;;;;;;;1.48;0.60;;;7.90;1.00;;;;;;5072240;28;20107;-66
2023/03/28 10:22:25;;;;;;;0.82;0.52;;;8.20;1.00;;;;;;5054513;28;20044;-65
2023/03/28 10:24:52;;;;;;;5.95;0.60;;;7.90;1.00;;;;;;5072178;28;20190;-65
2023/03/28 10:27:31;;;;;;;1.15;0.50;;;7.80;99.90;;;;;;5072174;28;20123;-65
2023/03/28 10:30:06;;;;;;;1.25;0.57;;;8.10;1.00;;;;;;5054507;28;20072;-65
2023/03/28 10:32:32;;;;;;;0.30;0.30;;;8.10;99.90;;;;;;5072298;28;20043;-65
2023/03/28 10:35:22;;;;;;;3.10;0.50;;;8.10;99.90;;;;;;5054181;28;20123;-65
2023/03/28 10:37:53;;;;;;;1.33;0.60;;;8.20;99.90;;;;;;5054175;28;20507;-65
2023/03/28 10:40:19;;;;;;;0.30;0.28;;;9.30;99.90;;;;;;5054169;28;20171;-64
2023/03/28 10:42:48;;;;;;;2.53;0.70;;;8.10;99.90;;;;;;5074492;28;20117;-65
2023/03/28 10:45:36;;;;;;;4.20;0.50;;;8.40;99.90;;;;;;5075552;28;20033;-64
2023/03/28 10:48:11;;;;;;;0.52;0.50;;;8.60;99.90;;;;;;5075501;28;20052;-64
2023/03/28 10:50:44;;;;;;;2.85;0.50;;;8.70;99.90;;;;;;5075738;28;20048;-65
2023/03/28 10:53:29;;;;;;;1.40;0.70;;;8.90;99.90;;;;;;5075498;28;20079;-65
2023/03/28 10:56:02;;;;;;;0.70;0.47;;;9.00;99.90;;;;;;5075649;28;20048;-65
2023/03/28 10:58:34;;;;;;;2.63;0.40;;;9.10;99.90;;;;;;5057366;28;20048;-65
2023/03/28 11:01:34;;;;;;;0.65;0.45;;;9.20;99.90;;;;;;5057758;28;20120;-65
2023/03/28 11:04:28;;;;;;;0.65;0.45;;;9.40;99.90;;;;;;4989990;28;20051;-66
2023/03/28 11:06:59;;;;;;;3.95;0.47;;;9.20;99.90;;;;;;5075504;28;20040;-65
2023/03/28 11:09:46;;;;;;;2.78;0.70;;;9.00;99.90;;;;;;5075165;28;20107;-65
2023/03/28 11:12:44;;;;;;;2.10;1.23;;;9.00;99.90;;;;;;5075144;28;20044;-65
2023/03/28 11:15:24;;;;;;;0.43;0.35;;;9.00;99.90;;;;;;5075083;28;20041;-64
2023/03/28 11:18:02;;;;;;;1.38;0.68;;;8.80;99.90;;;;;;5057092;28;20044;-65
2023/03/28 11:20:33;;;;;;;0.70;0.50;;;8.70;99.90;;;;;;5075282;28;20055;-65
2023/03/28 11:23:27;;;;;;;5.57;0.40;;;8.60;99.90;;;;;;5075257;28;20373;-65
2023/03/28 11:26:08;;;;;;;0.40;0.40;;;8.50;99.90;;;;;;5057233;28;20047;-64
2023/03/28 11:28:46;;;;;;;1.33;0.50;;;8.50;99.90;;;;;;5074799;28;20072;-65
2023/03/28 11:31:19;;;;;;;0.80;0.50;;;8.60;99.90;;;;;;5075069;28;20167;-64
2023/03/28 11:33:56;;;;;;;0.40;0.30;;;8.70;99.90;;;;;;5074747;28;20435;-64
2023/03/28 11:36:30;;;;;;;2.40;0.60;;;8.70;99.90;;;;;;5056807;28;20494;-64
2023/03/28 11:39:09;;;;;;;2.50;0.60;;;8.80;99.90;;;;;;5074837;28;20049;-64
2023/03/28 11:41:38;;;;;;;5.13;0.95;;;8.80;99.90;;;;;;5074568;28;20080;-64
2023/03/28 11:44:20;;;;;;;3.47;0.70;;;9.10;99.90;;;;;;5074692;28;20041;-64
2023/03/28 11:47:09;;;;;;;1.58;0.70;;;9.30;99.90;;;;;;5074776;28;20045;-64
2023/03/28 11:49:40;;;;;;;1.67;0.82;;;9.60;99.90;;;;;;5074760;28;20457;-65
2023/03/28 11:52:21;;;;;;;1.48;0.70;;;9.80;99.90;;;;;;5056602;28;20044;-65
2023/03/28 11:55:03;;;;;;;1.95;0.88;;;9.80;99.90;;;;;;5074582;28;20379;-65
2023/03/28 11:57:34;;;;;;;1.48;0.52;;;9.70;99.90;;;;;;5056348;28;20045;-65
2023/03/28 12:00:06;;;;;;;0.63;0.57;;;9.70;99.90;;;;;;5074505;28;20396;-65
2023/03/28 12:02:55;;;;;;;0.68;0.60;;;9.70;99.90;;;;;;5074412;28;20119;-64
2023/03/28 12:05:31;;;;;;;1.38;0.70;;;9.80;99.90;;;;;;5056207;28;20045;-65
2023/03/28 12:08:07;;;;;;;2.75;1.10;;;9.80;99.90;;;;;;5074331;28;20052;-65
2023/03/28 12:10:35;;;;;;;2.10;0.60;;;9.70;99.90;;;;;;5073994;28;20036;-64
2023/03/28 12:13:14;;;;;;;1.20;0.70;;;10.10;99.90;;;;;;5073853;28;20510;-65
2023/03/28 12:15:46;;;;;;;2.92;1.02;;;9.50;99.90;;;;;;5074208;28;20037;-65
2023/03/28 12:18:42;;;;;;;2.42;0.88;;;9.50;99.90;;;;;;5074058;28;20036;-65
2023/03/28 12:21:27;;;;;;;3.33;0.82;;;9.50;99.90;;;;;;5035475;28;20052;-64
2023/03/28 12:24:25;;;;;;;3.45;0.90;;;9.90;99.90;;;;;;5073753;28;20050;-67
2023/03/28 12:27:25;;;;;;;0.80;0.80;;;9.90;99.90;;;;;;5066994;28;20484;-65
2023/03/28 12:30:00;;;;;;;1.52;0.70;;;10.00;99.90;;;;;;5073878;28;20037;-64
2023/03/28 12:32:30;;;;;;;0.90;0.57;;;10.10;99.90;;;;;;5073885;28;20534;-65
2023/03/28 12:35:12;;;;;;;1.05;0.85;;;10.10;99.90;;;;;;5073790;28;20089;-66
2023/03/28 12:38:00;;;;;;;4.22;0.75;;;9.90;99.90;;;;;;5073674;28;20041;-65
2023/03/28 12:40:38;;;;;;;1.27;0.73;;;10.10;99.90;;;;;;5073717;28;20036;-65
2023/03/28 12:43:05;;;;;;;1.23;0.73;;;10.70;99.90;;;;;;5055744;28;20373;-65
2023/03/28 12:45:37;;;;;;;1.58;0.90;;;10.60;99.90;;;;;;5073611;28;20078;-64
2023/03/28 12:48:07;;;;;;;0.50;0.50;;;10.60;99.90;;;;;;5073495;28;20040;-65
2023/03/28 12:50:47;;;;;;;0.40;0.40;;;10.80;99.90;;;;;;5055436;28;20043;-65
2023/03/28 12:53:14;;;;;;;1.75;0.82;;;10.80;99.90;;;;;;5073491;28;20033;-64
2023/03/28 12:55:43;;;;;;;1.30;0.70;;;10.60;99.90;;;;;;5073188;28;20484;-65
2023/03/28 12:58:22;;;;;;;1.77;0.75;;;10.40;99.90;;;;;;5073316;28;20102;-65
2023/03/28 13:01:05;;;;;;;2.00;0.80;;;10.50;99.90;;;;;;5073299;28;20045;-65
2023/03/28 13:04:11;;;;;;;2.25;0.40;;;10.50;99.90;;;;;;5072918;28;20044;-64
2023/03/28 13:06:59;;;;;;;1.25;0.65;;;10.70;99.90;;;;;;5054963;28;20126;-65
2023/03/28 13:09:48;;;;;;;1.08;0.60;;;10.70;99.90;;;;;;5072959;28;20433;-65
2023/03/28 13:12:33;;;;;;;1.42;0.85;;;10.30;99.90;;;;;;5055019;28;20393;-64
2023/03/28 13:15:26;;;;;;;0.85;0.70;;;10.30;99.90;;;;;;5073139;28;20048;-65
2023/03/28 13:18:16;;;;;;;3.25;0.60;;;10.20;99.90;;;;;;5073122;28;20492;-65
2023/03/28 13:20:50;;;;;;;2.05;0.95;;;10.20;99.90;;;;;;5073078;28;20048;-65
2023/03/28 13:23:17;;;;;;;3.75;0.98;;;10.00;99.90;;;;;;5072691;28;20032;-65
2023/03/28 13:25:53;;;;;;;3.00;0.75;;;10.20;99.90;;;;;;5073029;28;20365;-66